sensor_id;sensor_type;location;lat;lon;timestamp;temperature;humidity
64855;DHT22;51321;50.428;8.378;2023-07-13T00:01:23;18.10;95.10
64855;DHT22;51321;50.428;8.378;2023-07-13T00:04:03;18.20;94.90
64855;DHT22;51321;50.428;8.378;2023-07-13T00:06:46;18.30;94.20
64855;DHT22;51321;50.428;8.378;2023-07-13T00:09:27;18.20;94.60
64855;DHT22;51321;50.428;8.378;2023-07-13T00:12:23;18.10;94.70
64855;DHT22;51321;50.428;8.378;2023-07-13T00:15:10;18.20;95.00
64855;DHT22;51321;50.428;8.378;2023-07-13T00:17:53;18.20;94.90
64855;DHT22;51321;50.428;8.378;2023-07-13T00:20:34;18.20;95.00
64855;DHT22;51321;50.428;8.378;2023-07-13T00:23:15;18.10;95.40
64855;DHT22;51321;50.428;8.378;2023-07-13T00:25:58;18.00;95.60
64855;DHT22;51321;50.428;8.378;2023-07-13T00:28:39;18.00;95.50
64855;DHT22;51321;50.428;8.378;2023-07-13T00:31:22;18.00;95.50
64855;DHT22;51321;50.428;8.378;2023-07-13T00:34:03;18.00;95.40
64855;DHT22;51321;50.428;8.378;2023-07-13T00:36:44;17.90;95.80
64855;DHT22;51321;50.428;8.378;2023-07-13T00:39:25;17.70;95.90
64855;DHT22;51321;50.428;8.378;2023-07-13T00:42:06;17.70;96.00
64855;DHT22;51321;50.428;8.378;2023-07-13T00:46:02;17.70;96.20
64855;DHT22;51321;50.428;8.378;2023-07-13T00:48:09;17.60;96.30
64855;DHT22;51321;50.428;8.378;2023-07-13T00:50:52;17.40;96.50
64855;DHT22;51321;50.428;8.378;2023-07-13T00:53:34;17.30;96.60
64855;DHT22;51321;50.428;8.378;2023-07-13T00:56:15;17.40;96.40
64855;DHT22;51321;50.428;8.378;2023-07-13T00:58:57;17.40;96.40
64855;DHT22;51321;50.428;8.378;2023-07-13T01:01:38;17.40;96.20
64855;DHT22;51321;50.428;8.378;2023-07-13T01:04:20;17.50;95.80
64855;DHT22;51321;50.428;8.378;2023-07-13T01:07:01;17.60;96.00
64855;DHT22;51321;50.428;8.378;2023-07-13T01:09:42;17.60;96.10
64855;DHT22;51321;50.428;8.378;2023-07-13T01:12:23;17.50;96.10
64855;DHT22;51321;50.428;8.378;2023-07-13T01:15:34;17.40;96.30
64855;DHT22;51321;50.428;8.378;2023-07-13T01:18:19;17.20;96.70
64855;DHT22;51321;50.428;8.378;2023-07-13T01:21:03;17.10;96.50
64855;DHT22;51321;50.428;8.378;2023-07-13T01:23:45;17.20;96.70
64855;DHT22;51321;50.428;8.378;2023-07-13T01:26:26;16.90;97.00
64855;DHT22;51321;50.428;8.378;2023-07-13T01:29:06;16.70;96.70
64855;DHT22;51321;50.428;8.378;2023-07-13T01:31:47;16.80;96.60
64855;DHT22;51321;50.428;8.378;2023-07-13T01:34:28;16.70;96.10
64855;DHT22;51321;50.428;8.378;2023-07-13T01:37:10;16.80;96.10
64855;DHT22;51321;50.428;8.378;2023-07-13T01:39:51;16.90;96.20
64855;DHT22;51321;50.428;8.378;2023-07-13T01:42:32;16.80;96.30
64855;DHT22;51321;50.428;8.378;2023-07-13T01:45:13;17.00;96.20
64855;DHT22;51321;50.428;8.378;2023-07-13T01:47:54;17.10;96.10
64855;DHT22;51321;50.428;8.378;2023-07-13T01:50:35;16.90;95.90
64855;DHT22;51321;50.428;8.378;2023-07-13T01:53:18;16.90;96.10
64855;DHT22;51321;50.428;8.378;2023-07-13T01:55:58;17.00;96.20
64855;DHT22;51321;50.428;8.378;2023-07-13T01:58:39;16.90;96.50
64855;DHT22;51321;50.428;8.378;2023-07-13T02:01:20;16.80;96.70
64855;DHT22;51321;50.428;8.378;2023-07-13T02:04:00;16.70;96.80
64855;DHT22;51321;50.428;8.378;2023-07-13T02:06:44;16.40;96.30
64855;DHT22;51321;50.428;8.378;2023-07-13T02:09:26;16.10;96.70
64855;DHT22;51321;50.428;8.378;2023-07-13T02:12:07;15.80;97.10
64855;DHT22;51321;50.428;8.378;2023-07-13T02:14:48;15.60;97.20
64855;DHT22;51321;50.428;8.378;2023-07-13T02:17:29;15.60;97.50
64855;DHT22;51321;50.428;8.378;2023-07-13T02:20:10;15.50;97.60
64855;DHT22;51321;50.428;8.378;2023-07-13T02:22:51;15.60;97.50
64855;DHT22;51321;50.428;8.378;2023-07-13T02:25:35;15.70;97.40
64855;DHT22;51321;50.428;8.378;2023-07-13T02:28:16;16.00;97.50
64855;DHT22;51321;50.428;8.378;2023-07-13T02:31:05;15.90;97.70
64855;DHT22;51321;50.428;8.378;2023-07-13T02:33:45;15.70;97.30
64855;DHT22;51321;50.428;8.378;2023-07-13T02:36:26;15.60;97.50
64855;DHT22;51321;50.428;8.378;2023-07-13T02:39:06;15.60;97.40
64855;DHT22;51321;50.428;8.378;2023-07-13T02:41:50;15.60;97.40
64855;DHT22;51321;50.428;8.378;2023-07-13T02:44:31;15.60;96.90
64855;DHT22;51321;50.428;8.378;2023-07-13T02:47:11;15.60;97.00
64855;DHT22;51321;50.428;8.378;2023-07-13T02:49:52;15.30;97.40
64855;DHT22;51321;50.428;8.378;2023-07-13T02:52:33;15.10;97.50
64855;DHT22;51321;50.428;8.378;2023-07-13T02:55:15;15.10;97.80
64855;DHT22;51321;50.428;8.378;2023-07-13T02:57:57;15.40;97.90
64855;DHT22;51321;50.428;8.378;2023-07-13T03:00:38;15.50;98.30
64855;DHT22;51321;50.428;8.378;2023-07-13T03:03:20;15.50;98.50
64855;DHT22;51321;50.428;8.378;2023-07-13T03:06:03;15.20;98.30
64855;DHT22;51321;50.428;8.378;2023-07-13T03:08:51;15.00;98.50
64855;DHT22;51321;50.428;8.378;2023-07-13T03:11:32;14.80;98.60
64855;DHT22;51321;50.428;8.378;2023-07-13T03:14:27;15.00;98.50
64855;DHT22;51321;50.428;8.378;2023-07-13T03:17:07;14.90;98.50
64855;DHT22;51321;50.428;8.378;2023-07-13T03:19:52;14.80;98.50
64855;DHT22;51321;50.428;8.378;2023-07-13T03:22:33;14.90;98.60
64855;DHT22;51321;50.428;8.378;2023-07-13T03:25:14;14.90;98.80
64855;DHT22;51321;50.428;8.378;2023-07-13T03:27:56;15.10;98.70
64855;DHT22;51321;50.428;8.378;2023-07-13T03:30:38;15.30;98.40
64855;DHT22;51321;50.428;8.378;2023-07-13T03:33:20;15.30;98.20
64855;DHT22;51321;50.428;8.378;2023-07-13T03:36:05;15.40;98.30
64855;DHT22;51321;50.428;8.378;2023-07-13T03:38:51;15.10;98.70
64855;DHT22;51321;50.428;8.378;2023-07-13T03:41:38;15.10;98.80
64855;DHT22;51321;50.428;8.378;2023-07-13T03:44:26;15.20;98.60
64855;DHT22;51321;50.428;8.378;2023-07-13T03:47:23;15.20;98.50
64855;DHT22;51321;50.428;8.378;2023-07-13T03:50:06;15.10;98.90
64855;DHT22;51321;50.428;8.378;2023-07-13T03:52:50;14.80;98.90
64855;DHT22;51321;50.428;8.378;2023-07-13T03:55:32;15.00;98.70
64855;DHT22;51321;50.428;8.378;2023-07-13T03:58:27;15.10;99.10
64855;DHT22;51321;50.428;8.378;2023-07-13T04:01:15;15.00;99.20
64855;DHT22;51321;50.428;8.378;2023-07-13T04:03:59;14.90;99.40
64855;DHT22;51321;50.428;8.378;2023-07-13T04:06:41;14.90;99.50
64855;DHT22;51321;50.428;8.378;2023-07-13T04:09:25;14.90;99.80
64855;DHT22;51321;50.428;8.378;2023-07-13T04:12:13;15.10;99.50
64855;DHT22;51321;50.428;8.378;2023-07-13T04:14:56;15.30;99.20
64855;DHT22;51321;50.428;8.378;2023-07-13T04:17:37;15.40;99.40
64855;DHT22;51321;50.428;8.378;2023-07-13T04:20:24;15.60;99.00
64855;DHT22;51321;50.428;8.378;2023-07-13T04:23:06;15.70;98.80
64855;DHT22;51321;50.428;8.378;2023-07-13T04:25:52;15.60;98.60
64855;DHT22;51321;50.428;8.378;2023-07-13T04:28:34;15.70;98.80
64855;DHT22;51321;50.428;8.378;2023-07-13T04:31:17;15.90;98.50
64855;DHT22;51321;50.428;8.378;2023-07-13T04:33:58;15.90;98.40
64855;DHT22;51321;50.428;8.378;2023-07-13T04:36:40;15.90;98.30
64855;DHT22;51321;50.428;8.378;2023-07-13T04:39:20;16.00;98.20
64855;DHT22;51321;50.428;8.378;2023-07-13T04:42:01;16.10;98.10
64855;DHT22;51321;50.428;8.378;2023-07-13T04:44:41;16.00;97.90
64855;DHT22;51321;50.428;8.378;2023-07-13T04:47:22;16.00;98.10
64855;DHT22;51321;50.428;8.378;2023-07-13T04:50:03;15.90;98.50
64855;DHT22;51321;50.428;8.378;2023-07-13T04:52:46;16.10;98.30
64855;DHT22;51321;50.428;8.378;2023-07-13T04:55:26;16.30;98.10
64855;DHT22;51321;50.428;8.378;2023-07-13T04:58:10;16.30;98.10
64855;DHT22;51321;50.428;8.378;2023-07-13T05:00:50;16.40;97.90
64855;DHT22;51321;50.428;8.378;2023-07-13T05:03:31;16.50;98.00
64855;DHT22;51321;50.428;8.378;2023-07-13T05:06:11;16.30;97.80
64855;DHT22;51321;50.428;8.378;2023-07-13T05:08:54;16.40;98.20
64855;DHT22;51321;50.428;8.378;2023-07-13T05:11:35;16.40;97.80
64855;DHT22;51321;50.428;8.378;2023-07-13T05:14:15;16.40;97.90
64855;DHT22;51321;50.428;8.378;2023-07-13T05:16:56;16.50;97.80
64855;DHT22;51321;50.428;8.378;2023-07-13T05:19:37;16.60;97.70
64855;DHT22;51321;50.428;8.378;2023-07-13T05:22:18;16.70;97.60
64855;DHT22;51321;50.428;8.378;2023-07-13T05:25:00;16.80;97.50
64855;DHT22;51321;50.428;8.378;2023-07-13T05:27:41;16.90;97.30
64855;DHT22;51321;50.428;8.378;2023-07-13T05:30:21;17.10;97.10
64855;DHT22;51321;50.428;8.378;2023-07-13T05:33:02;17.30;97.40
64855;DHT22;51321;50.428;8.378;2023-07-13T05:35:42;17.40;97.40
64855;DHT22;51321;50.428;8.378;2023-07-13T05:38:23;17.60;96.90
64855;DHT22;51321;50.428;8.378;2023-07-13T05:41:05;17.50;96.30
64855;DHT22;51321;50.428;8.378;2023-07-13T05:43:46;17.70;96.60
64855;DHT22;51321;50.428;8.378;2023-07-13T05:46:27;17.90;96.00
64855;DHT22;51321;50.428;8.378;2023-07-13T05:49:07;18.10;95.60
64855;DHT22;51321;50.428;8.378;2023-07-13T05:51:49;18.20;95.20
64855;DHT22;51321;50.428;8.378;2023-07-13T05:54:29;18.30;95.50
64855;DHT22;51321;50.428;8.378;2023-07-13T05:57:12;18.50;95.30
64855;DHT22;51321;50.428;8.378;2023-07-13T05:59:53;18.70;94.50
64855;DHT22;51321;50.428;8.378;2023-07-13T06:02:33;18.90;93.80
64855;DHT22;51321;50.428;8.378;2023-07-13T06:05:14;19.10;94.00
64855;DHT22;51321;50.428;8.378;2023-07-13T06:07:55;19.30;94.10
64855;DHT22;51321;50.428;8.378;2023-07-13T06:10:36;19.40;93.60
64855;DHT22;51321;50.428;8.378;2023-07-13T06:13:18;19.60;93.30
64855;DHT22;51321;50.428;8.378;2023-07-13T06:15:59;19.70;91.90
64855;DHT22;51321;50.428;8.378;2023-07-13T06:18:40;19.90;91.50
64855;DHT22;51321;50.428;8.378;2023-07-13T06:21:22;20.10;91.10
64855;DHT22;51321;50.428;8.378;2023-07-13T06:24:03;20.20;90.50
64855;DHT22;51321;50.428;8.378;2023-07-13T06:26:44;20.30;90.50
64855;DHT22;51321;50.428;8.378;2023-07-13T06:29:26;20.50;90.80
64855;DHT22;51321;50.428;8.378;2023-07-13T06:32:08;20.70;90.10
64855;DHT22;51321;50.428;8.378;2023-07-13T06:34:49;20.60;90.50
64855;DHT22;51321;50.428;8.378;2023-07-13T06:37:31;20.60;90.20
64855;DHT22;51321;50.428;8.378;2023-07-13T06:40:12;20.50;90.70
64855;DHT22;51321;50.428;8.378;2023-07-13T06:42:52;20.50;89.70
64855;DHT22;51321;50.428;8.378;2023-07-13T06:45:39;20.60;90.00
64855;DHT22;51321;50.428;8.378;2023-07-13T06:48:20;20.80;90.30
64855;DHT22;51321;50.428;8.378;2023-07-13T06:51:02;21.00;89.70
64855;DHT22;51321;50.428;8.378;2023-07-13T06:53:43;21.10;88.90
64855;DHT22;51321;50.428;8.378;2023-07-13T06:56:23;21.30;90.00
64855;DHT22;51321;50.428;8.378;2023-07-13T06:59:04;21.40;88.70
64855;DHT22;51321;50.428;8.378;2023-07-13T07:01:46;21.60;88.60
64855;DHT22;51321;50.428;8.378;2023-07-13T07:04:26;21.80;87.80
64855;DHT22;51321;50.428;8.378;2023-07-13T07:07:07;21.70;87.20
64855;DHT22;51321;50.428;8.378;2023-07-13T07:09:47;21.60;88.10
64855;DHT22;51321;50.428;8.378;2023-07-13T07:12:28;21.90;87.80
64855;DHT22;51321;50.428;8.378;2023-07-13T07:15:09;22.10;86.30
64855;DHT22;51321;50.428;8.378;2023-07-13T07:17:52;22.10;85.40
64855;DHT22;51321;50.428;8.378;2023-07-13T07:20:33;22.10;86.90
64855;DHT22;51321;50.428;8.378;2023-07-13T07:23:17;22.30;85.50
64855;DHT22;51321;50.428;8.378;2023-07-13T07:25:58;22.20;84.20
64855;DHT22;51321;50.428;8.378;2023-07-13T07:28:38;22.50;84.50
64855;DHT22;51321;50.428;8.378;2023-07-13T07:31:25;22.60;84.90
64855;DHT22;51321;50.428;8.378;2023-07-13T07:34:07;22.70;84.20
64855;DHT22;51321;50.428;8.378;2023-07-13T07:36:47;22.60;83.60
64855;DHT22;51321;50.428;8.378;2023-07-13T07:39:28;22.60;84.50
64855;DHT22;51321;50.428;8.378;2023-07-13T07:42:09;22.70;83.90
64855;DHT22;51321;50.428;8.378;2023-07-13T07:44:51;22.90;84.00
64855;DHT22;51321;50.428;8.378;2023-07-13T07:47:32;23.00;82.30
64855;DHT22;51321;50.428;8.378;2023-07-13T07:50:15;22.90;81.90
64855;DHT22;51321;50.428;8.378;2023-07-13T07:52:55;22.80;83.00
64855;DHT22;51321;50.428;8.378;2023-07-13T07:55:37;22.40;83.50
64855;DHT22;51321;50.428;8.378;2023-07-13T07:58:17;22.40;85.00
64855;DHT22;51321;50.428;8.378;2023-07-13T08:01:05;22.20;83.90
64855;DHT22;51321;50.428;8.378;2023-07-13T08:03:46;22.10;82.90
64855;DHT22;51321;50.428;8.378;2023-07-13T08:06:28;22.10;83.30
64855;DHT22;51321;50.428;8.378;2023-07-13T08:09:09;22.10;84.30
64855;DHT22;51321;50.428;8.378;2023-07-13T08:11:51;22.10;83.70
64855;DHT22;51321;50.428;8.378;2023-07-13T08:14:40;22.20;83.20
64855;DHT22;51321;50.428;8.378;2023-07-13T08:17:22;22.20;83.90
64855;DHT22;51321;50.428;8.378;2023-07-13T08:20:03;22.30;84.70
64855;DHT22;51321;50.428;8.378;2023-07-13T08:22:46;22.30;83.20
64855;DHT22;51321;50.428;8.378;2023-07-13T08:25:27;22.00;82.10
64855;DHT22;51321;50.428;8.378;2023-07-13T08:28:07;21.90;83.00
64855;DHT22;51321;50.428;8.378;2023-07-13T08:30:48;22.00;82.80
64855;DHT22;51321;50.428;8.378;2023-07-13T08:33:29;22.00;80.90
64855;DHT22;51321;50.428;8.378;2023-07-13T08:36:10;22.30;81.00
64855;DHT22;51321;50.428;8.378;2023-07-13T08:38:52;22.70;81.20
64855;DHT22;51321;50.428;8.378;2023-07-13T08:41:33;23.00;78.90
64855;DHT22;51321;50.428;8.378;2023-07-13T08:44:23;23.00;79.20
64855;DHT22;51321;50.428;8.378;2023-07-13T08:47:08;23.20;78.10
64855;DHT22;51321;50.428;8.378;2023-07-13T08:49:50;23.20;77.60
64855;DHT22;51321;50.428;8.378;2023-07-13T08:52:34;23.20;79.60
64855;DHT22;51321;50.428;8.378;2023-07-13T08:55:22;23.30;80.30
64855;DHT22;51321;50.428;8.378;2023-07-13T08:58:09;23.50;78.50
64855;DHT22;51321;50.428;8.378;2023-07-13T09:00:58;23.70;76.00
64855;DHT22;51321;50.428;8.378;2023-07-13T09:03:46;23.60;77.40
64855;DHT22;51321;50.428;8.378;2023-07-13T09:06:34;23.80;77.00
64855;DHT22;51321;50.428;8.378;2023-07-13T09:09:23;24.30;75.20
64855;DHT22;51321;50.428;8.378;2023-07-13T09:12:15;24.60;74.20
64855;DHT22;51321;50.428;8.378;2023-07-13T09:15:27;24.80;73.70
64855;DHT22;51321;50.428;8.378;2023-07-13T09:18:16;24.70;73.60
64855;DHT22;51321;50.428;8.378;2023-07-13T09:21:17;24.40;72.60
64855;DHT22;51321;50.428;8.378;2023-07-13T09:24:27;24.60;75.10
64855;DHT22;51321;50.428;8.378;2023-07-13T09:27:19;24.40;72.20
64855;DHT22;51321;50.428;8.378;2023-07-13T09:30:17;24.50;74.00
64855;DHT22;51321;50.428;8.378;2023-07-13T09:33:16;24.90;72.80
64855;DHT22;51321;50.428;8.378;2023-07-13T09:35:57;24.80;73.20
64855;DHT22;51321;50.428;8.378;2023-07-13T09:38:41;24.90;71.30
64855;DHT22;51321;50.428;8.378;2023-07-13T09:41:28;24.70;71.70
64855;DHT22;51321;50.428;8.378;2023-07-13T09:44:16;24.80;73.40
64855;DHT22;51321;50.428;8.378;2023-07-13T09:46:58;24.70;72.60
64855;DHT22;51321;50.428;8.378;2023-07-13T09:49:39;24.70;72.00
64855;DHT22;51321;50.428;8.378;2023-07-13T09:52:23;24.90;73.00
64855;DHT22;51321;50.428;8.378;2023-07-13T09:55:25;24.90;71.80
64855;DHT22;51321;50.428;8.378;2023-07-13T09:58:11;25.00;71.90
64855;DHT22;51321;50.428;8.378;2023-07-13T10:00:58;25.20;72.30
64855;DHT22;51321;50.428;8.378;2023-07-13T10:03:40;25.30;71.30
64855;DHT22;51321;50.428;8.378;2023-07-13T10:06:32;25.20;70.40
64855;DHT22;51321;50.428;8.378;2023-07-13T10:09:16;25.00;70.40
64855;DHT22;51321;50.428;8.378;2023-07-13T10:11:58;25.10;70.70
64855;DHT22;51321;50.428;8.378;2023-07-13T10:14:42;25.00;70.80
64855;DHT22;51321;50.428;8.378;2023-07-13T10:17:27;25.00;72.20
64855;DHT22;51321;50.428;8.378;2023-07-13T10:20:10;24.90;70.50
64855;DHT22;51321;50.428;8.378;2023-07-13T10:22:54;24.60;71.90
64855;DHT22;51321;50.428;8.378;2023-07-13T10:25:39;24.40;71.90
64855;DHT22;51321;50.428;8.378;2023-07-13T10:28:27;24.50;71.40
64855;DHT22;51321;50.428;8.378;2023-07-13T10:31:11;24.90;71.00
64855;DHT22;51321;50.428;8.378;2023-07-13T10:33:55;25.50;70.20
64855;DHT22;51321;50.428;8.378;2023-07-13T10:36:37;26.00;69.80
64855;DHT22;51321;50.428;8.378;2023-07-13T10:39:21;25.90;69.60
64855;DHT22;51321;50.428;8.378;2023-07-13T10:42:06;26.00;69.60
64855;DHT22;51321;50.428;8.378;2023-07-13T10:44:51;26.00;69.20
64855;DHT22;51321;50.428;8.378;2023-07-13T10:47:33;26.30;70.60
64855;DHT22;51321;50.428;8.378;2023-07-13T10:50:20;26.50;68.60
64855;DHT22;51321;50.428;8.378;2023-07-13T10:53:03;26.50;66.80
64855;DHT22;51321;50.428;8.378;2023-07-13T10:56:22;26.50;68.70
64855;DHT22;51321;50.428;8.378;2023-07-13T10:59:12;26.20;67.90
64855;DHT22;51321;50.428;8.378;2023-07-13T11:01:58;25.50;68.50
64855;DHT22;51321;50.428;8.378;2023-07-13T11:04:43;25.60;69.00
64855;DHT22;51321;50.428;8.378;2023-07-13T11:07:29;25.70;68.10
64855;DHT22;51321;50.428;8.378;2023-07-13T11:10:46;25.40;68.00
64855;DHT22;51321;50.428;8.378;2023-07-13T11:13:55;25.30;68.20
64855;DHT22;51321;50.428;8.378;2023-07-13T11:16:45;25.20;69.10
64855;DHT22;51321;50.428;8.378;2023-07-13T11:19:42;25.30;70.00
64855;DHT22;51321;50.428;8.378;2023-07-13T11:25:42;25.50;67.70
64855;DHT22;51321;50.428;8.378;2023-07-13T11:28:26;25.30;67.20
64855;DHT22;51321;50.428;8.378;2023-07-13T11:31:14;25.30;68.30
64855;DHT22;51321;50.428;8.378;2023-07-13T11:33:59;25.40;68.20
64855;DHT22;51321;50.428;8.378;2023-07-13T11:36:43;25.40;66.70
64855;DHT22;51321;50.428;8.378;2023-07-13T11:39:29;25.30;67.40
64855;DHT22;51321;50.428;8.378;2023-07-13T11:42:16;25.50;67.90
64855;DHT22;51321;50.428;8.378;2023-07-13T11:44:57;25.40;66.80
64855;DHT22;51321;50.428;8.378;2023-07-13T11:47:40;25.20;67.00
64855;DHT22;51321;50.428;8.378;2023-07-13T11:50:24;25.00;67.50
64855;DHT22;51321;50.428;8.378;2023-07-13T11:53:10;25.00;67.20
64855;DHT22;51321;50.428;8.378;2023-07-13T11:55:51;25.00;67.90
64855;DHT22;51321;50.428;8.378;2023-07-13T11:58:34;25.00;65.60
64855;DHT22;51321;50.428;8.378;2023-07-13T12:01:19;25.20;65.40
64855;DHT22;51321;50.428;8.378;2023-07-13T12:04:03;25.50;65.70
64855;DHT22;51321;50.428;8.378;2023-07-13T12:06:55;25.60;66.10
64855;DHT22;51321;50.428;8.378;2023-07-13T12:09:36;25.50;66.60
64855;DHT22;51321;50.428;8.378;2023-07-13T12:12:20;25.40;64.90
64855;DHT22;51321;50.428;8.378;2023-07-13T12:15:07;25.50;64.70
64855;DHT22;51321;50.428;8.378;2023-07-13T12:17:49;25.50;65.20
64855;DHT22;51321;50.428;8.378;2023-07-13T12:20:38;25.50;66.20
64855;DHT22;51321;50.428;8.378;2023-07-13T12:23:23;25.80;66.30
64855;DHT22;51321;50.428;8.378;2023-07-13T12:26:06;25.90;65.40
64855;DHT22;51321;50.428;8.378;2023-07-13T12:28:51;26.10;64.30
64855;DHT22;51321;50.428;8.378;2023-07-13T12:31:40;26.60;64.10
64855;DHT22;51321;50.428;8.378;2023-07-13T12:34:23;27.00;61.70
64855;DHT22;51321;50.428;8.378;2023-07-13T12:37:11;26.80;61.70
64855;DHT22;51321;50.428;8.378;2023-07-13T12:39:56;26.50;62.10
64855;DHT22;51321;50.428;8.378;2023-07-13T12:42:40;26.00;62.60
64855;DHT22;51321;50.428;8.378;2023-07-13T12:45:25;25.80;64.00
64855;DHT22;51321;50.428;8.378;2023-07-13T12:48:14;26.10;64.70
64855;DHT22;51321;50.428;8.378;2023-07-13T12:51:01;26.00;64.50
64855;DHT22;51321;50.428;8.378;2023-07-13T12:53:49;26.00;65.50
64855;DHT22;51321;50.428;8.378;2023-07-13T12:56:33;26.30;64.60
64855;DHT22;51321;50.428;8.378;2023-07-13T12:59:18;26.30;64.70
64855;DHT22;51321;50.428;8.378;2023-07-13T13:02:00;26.10;65.40
64855;DHT22;51321;50.428;8.378;2023-07-13T13:04:43;25.90;64.50
64855;DHT22;51321;50.428;8.378;2023-07-13T13:07:27;25.80;64.90
64855;DHT22;51321;50.428;8.378;2023-07-13T13:10:11;25.70;63.90
64855;DHT22;51321;50.428;8.378;2023-07-13T13:12:53;25.40;64.00
64855;DHT22;51321;50.428;8.378;2023-07-13T13:15:35;25.20;64.80
64855;DHT22;51321;50.428;8.378;2023-07-13T13:18:19;25.10;65.00
64855;DHT22;51321;50.428;8.378;2023-07-13T13:21:03;25.20;64.90
64855;DHT22;51321;50.428;8.378;2023-07-13T13:23:47;25.30;64.70
64855;DHT22;51321;50.428;8.378;2023-07-13T13:26:30;25.40;64.70
64855;DHT22;51321;50.428;8.378;2023-07-13T13:29:13;25.40;65.70
64855;DHT22;51321;50.428;8.378;2023-07-13T13:31:56;25.40;66.50
64855;DHT22;51321;50.428;8.378;2023-07-13T13:34:37;25.20;65.00
64855;DHT22;51321;50.428;8.378;2023-07-13T13:37:21;25.10;64.20
64855;DHT22;51321;50.428;8.378;2023-07-13T13:40:04;24.90;65.70
64855;DHT22;51321;50.428;8.378;2023-07-13T13:42:45;24.90;65.50
64855;DHT22;51321;50.428;8.378;2023-07-13T13:45:27;24.80;65.70
64855;DHT22;51321;50.428;8.378;2023-07-13T13:48:13;24.90;65.20
64855;DHT22;51321;50.428;8.378;2023-07-13T13:50:55;24.90;65.90
64855;DHT22;51321;50.428;8.378;2023-07-13T13:53:37;24.90;65.30
64855;DHT22;51321;50.428;8.378;2023-07-13T13:56:19;25.00;67.70
64855;DHT22;51321;50.428;8.378;2023-07-13T13:59:00;25.20;66.80
64855;DHT22;51321;50.428;8.378;2023-07-13T14:01:42;25.20;64.80
64855;DHT22;51321;50.428;8.378;2023-07-13T14:04:24;25.10;65.30
64855;DHT22;51321;50.428;8.378;2023-07-13T14:07:05;25.20;64.80
64855;DHT22;51321;50.428;8.378;2023-07-13T14:09:48;25.10;65.20
64855;DHT22;51321;50.428;8.378;2023-07-13T14:12:31;25.00;65.60
64855;DHT22;51321;50.428;8.378;2023-07-13T14:15:19;25.00;66.70
64855;DHT22;51321;50.428;8.378;2023-07-13T14:18:01;25.00;65.70
64855;DHT22;51321;50.428;8.378;2023-07-13T14:20:42;25.10;65.80
64855;DHT22;51321;50.428;8.378;2023-07-13T14:23:24;25.20;65.40
64855;DHT22;51321;50.428;8.378;2023-07-13T14:26:10;25.20;65.30
64855;DHT22;51321;50.428;8.378;2023-07-13T14:28:54;25.20;65.40
64855;DHT22;51321;50.428;8.378;2023-07-13T14:31:36;25.10;65.60
64855;DHT22;51321;50.428;8.378;2023-07-13T14:34:18;25.10;65.90
64855;DHT22;51321;50.428;8.378;2023-07-13T14:37:00;25.10;66.60
64855;DHT22;51321;50.428;8.378;2023-07-13T14:39:42;25.00;65.70
64855;DHT22;51321;50.428;8.378;2023-07-13T14:42:26;25.00;65.70
64855;DHT22;51321;50.428;8.378;2023-07-13T14:45:13;25.00;66.00
64855;DHT22;51321;50.428;8.378;2023-07-13T14:47:55;25.10;68.20
64855;DHT22;51321;50.428;8.378;2023-07-13T14:50:42;25.20;66.30
64855;DHT22;51321;50.428;8.378;2023-07-13T14:53:26;25.30;65.20
64855;DHT22;51321;50.428;8.378;2023-07-13T14:56:17;25.30;66.60
64855;DHT22;51321;50.428;8.378;2023-07-13T14:59:02;25.50;65.80
64855;DHT22;51321;50.428;8.378;2023-07-13T15:01:44;25.60;65.60
64855;DHT22;51321;50.428;8.378;2023-07-13T15:04:25;25.60;65.60
64855;DHT22;51321;50.428;8.378;2023-07-13T15:07:18;25.60;67.00
64855;DHT22;51321;50.428;8.378;2023-07-13T15:10:00;25.50;65.40
64855;DHT22;51321;50.428;8.378;2023-07-13T15:12:59;25.50;66.10
64855;DHT22;51321;50.428;8.378;2023-07-13T15:15:46;25.80;65.30
64855;DHT22;51321;50.428;8.378;2023-07-13T15:18:28;26.10;65.50
64855;DHT22;51321;50.428;8.378;2023-07-13T15:21:10;26.50;64.80
64855;DHT22;51321;50.428;8.378;2023-07-13T15:23:53;26.50;64.60
64855;DHT22;51321;50.428;8.378;2023-07-13T15:26:34;26.30;63.10
64855;DHT22;51321;50.428;8.378;2023-07-13T15:29:16;25.80;64.10
64855;DHT22;51321;50.428;8.378;2023-07-13T15:31:59;25.70;65.20
64855;DHT22;51321;50.428;8.378;2023-07-13T15:34:45;25.60;64.00
64855;DHT22;51321;50.428;8.378;2023-07-13T15:37:28;25.70;64.70
64855;DHT22;51321;50.428;8.378;2023-07-13T15:40:11;25.80;64.50
64855;DHT22;51321;50.428;8.378;2023-07-13T15:42:53;26.00;63.20
64855;DHT22;51321;50.428;8.378;2023-07-13T15:45:34;25.80;63.40
64855;DHT22;51321;50.428;8.378;2023-07-13T15:48:19;25.70;64.30
64855;DHT22;51321;50.428;8.378;2023-07-13T15:51:19;26.40;64.40
64855;DHT22;51321;50.428;8.378;2023-07-13T15:54:04;26.70;63.30
64855;DHT22;51321;50.428;8.378;2023-07-13T15:56:52;26.80;63.20
64855;DHT22;51321;50.428;8.378;2023-07-13T15:59:34;26.60;62.40
64855;DHT22;51321;50.428;8.378;2023-07-13T16:02:18;26.40;62.30
64855;DHT22;51321;50.428;8.378;2023-07-13T16:05:01;25.80;64.10
64855;DHT22;51321;50.428;8.378;2023-07-13T16:07:42;25.50;64.40
64855;DHT22;51321;50.428;8.378;2023-07-13T16:10:29;25.20;64.80
64855;DHT22;51321;50.428;8.378;2023-07-13T16:13:14;25.20;65.20
64855;DHT22;51321;50.428;8.378;2023-07-13T16:15:56;25.10;65.00
64855;DHT22;51321;50.428;8.378;2023-07-13T16:18:38;24.80;64.30
64855;DHT22;51321;50.428;8.378;2023-07-13T16:21:23;24.70;65.00
64855;DHT22;51321;50.428;8.378;2023-07-13T16:24:05;24.80;64.70
64855;DHT22;51321;50.428;8.378;2023-07-13T16:26:50;24.70;65.90
64855;DHT22;51321;50.428;8.378;2023-07-13T16:29:32;24.80;65.00
64855;DHT22;51321;50.428;8.378;2023-07-13T16:32:13;24.80;65.50
64855;DHT22;51321;50.428;8.378;2023-07-13T16:34:55;24.80;65.50
64855;DHT22;51321;50.428;8.378;2023-07-13T16:37:38;24.70;65.00
64855;DHT22;51321;50.428;8.378;2023-07-13T16:40:23;24.60;64.90
64855;DHT22;51321;50.428;8.378;2023-07-13T16:43:06;24.60;65.70
64855;DHT22;51321;50.428;8.378;2023-07-13T16:45:48;24.30;65.30
64855;DHT22;51321;50.428;8.378;2023-07-13T16:48:29;24.20;65.50
64855;DHT22;51321;50.428;8.378;2023-07-13T16:51:10;24.30;67.50
64855;DHT22;51321;50.428;8.378;2023-07-13T16:53:52;24.20;67.40
64855;DHT22;51321;50.428;8.378;2023-07-13T16:59:42;24.10;66.40
64855;DHT22;51321;50.428;8.378;2023-07-13T17:02:33;24.00;66.10
64855;DHT22;51321;50.428;8.378;2023-07-13T17:05:16;24.00;67.00
64855;DHT22;51321;50.428;8.378;2023-07-13T17:07:58;23.90;66.60
64855;DHT22;51321;50.428;8.378;2023-07-13T17:10:41;23.80;66.50
64855;DHT22;51321;50.428;8.378;2023-07-13T17:13:26;23.90;66.60
64855;DHT22;51321;50.428;8.378;2023-07-13T17:16:09;23.80;67.30
64855;DHT22;51321;50.428;8.378;2023-07-13T17:18:51;23.80;67.20
64855;DHT22;51321;50.428;8.378;2023-07-13T17:21:33;23.70;66.50